Time;durP1;ratioP1;P1;durP2;ratioP2;P2;SDS_P1;SDS_P2;PMS_P1;PMS_P2;Temp;Humidity;BMP_temperature;BMP_pressure;BME280_temperature;BME280_humidity;BME280_pressure;Samples;Min_cycle;Max_cycle;Signal;HPM_P1;HPM_P2
2023/12/19 00:06:44;;;;;;;55.70;29.10;;;;;;;3.23;86.08;99255.02;437374;1250;112200;-40
2023/12/19 00:16:52;;;;;;;31.90;17.70;;;;;;;3.16;86.21;99251.73;437278;1250;108308;-43
2023/12/19 00:37:05;;;;;;;29.80;18.90;;;;;;;3.44;86.41;99265.80;437497;1260;109012;-40
2023/12/19 00:47:12;;;;;;;47.60;27.00;;;;;;;3.46;86.45;99253.98;437221;1250;416987;-41
2023/12/19 00:57:19;;;;;;;43.00;22.40;;;;;;;3.42;86.62;99215.28;437540;1254;112139;-40
2023/12/19 01:07:27;;;;;;;30.70;18.00;;;;;;;3.51;86.47;99212.83;437475;1253;107520;-40
2023/12/19 01:27:40;;;;;;;43.30;23.10;;;;;;;3.52;86.61;99200.34;437382;1260;107119;-40
2023/12/19 01:37:47;;;;;;;44.50;20.60;;;;;;;3.32;86.46;99174.98;437374;1250;99230;-40
2023/12/19 01:47:54;;;;;;;27.30;15.50;;;;;;;3.21;86.44;99190.80;437320;1260;110863;-40
2023/12/19 02:08:05;;;;;;;34.10;20.50;;;;;;;3.30;86.81;99228.27;437583;1250;98008;-40
2023/12/19 02:18:20;;;;;;;33.60;17.40;;;;;;;3.41;87.06;99213.81;437476;1248;109824;-40
2023/12/19 02:28:28;;;;;;;20.90;13.30;;;;;;;3.55;87.14;99181.98;438193;1249;107731;-39
2023/12/19 02:38:35;;;;;;;22.00;11.40;;;;;;;3.78;86.92;99162.12;436378;1254;99210;-40
2023/12/19 02:48:41;;;;;;;21.70;13.20;;;;;;;3.86;86.64;99126.11;436434;1253;113568;-39
2023/12/19 02:58:49;;;;;;;33.90;18.70;;;;;;;3.83;86.64;99122.98;436369;1254;107168;-39
2023/12/19 03:08:57;;;;;;;33.10;18.70;;;;;;;3.78;86.66;99115.73;436490;1253;99100;-39
2023/12/19 03:19:04;;;;;;;20.80;13.70;;;;;;;3.75;86.67;99146.57;436509;1253;108417;-39
2023/12/19 03:29:12;;;;;;;21.60;11.70;;;;;;;3.85;86.57;99142.30;436550;1254;98621;-39
2023/12/19 03:39:19;;;;;;;19.50;10.70;;;;;;;4.03;86.50;99133.20;436405;1258;111945;-38
2023/12/19 03:49:27;;;;;;;20.10;11.30;;;;;;;4.16;86.58;99122.14;436240;1248;108012;-40
2023/12/19 03:59:35;;;;;;;21.40;11.80;;;;;;;4.19;86.26;99110.27;436525;1251;98585;-40
2023/12/19 04:09:42;;;;;;;24.10;13.80;;;;;;;4.15;86.15;99108.12;436352;1254;110635;-39
2023/12/19 04:19:49;;;;;;;14.80;8.70;;;;;;;4.17;85.95;99092.20;436328;1261;109096;-41
2023/12/19 04:29:57;;;;;;;18.10;8.50;;;;;;;4.31;85.75;99079.60;436301;1252;99370;-40
2023/12/19 04:40:04;;;;;;;14.40;9.60;;;;;;;4.44;85.70;99094.14;436180;1251;109340;-39
2023/12/19 05:00:18;;;;;;;13.90;8.70;;;;;;;4.58;84.96;99072.89;436323;1252;111588;-41
2023/12/19 05:10:24;;;;;;;13.50;9.10;;;;;;;4.71;84.76;99096.50;436529;1262;107168;-40
2023/12/19 05:20:32;;;;;;;14.90;9.70;;;;;;;4.69;84.86;99085.59;436396;1248;99192;-39
2023/12/19 05:30:41;;;;;;;18.50;11.50;;;;;;;4.62;84.83;99073.95;436439;1254;108305;-39
2023/12/19 05:40:47;;;;;;;;;;;;;;;4.54;84.59;99071.95;436451;1252;98811;-40
2023/12/19 05:50:54;;;;;;;14.10;7.90;;;;;;;4.45;84.52;99080.66;436509;1252;111232;-40
2023/12/19 06:01:02;;;;;;;15.90;10.50;;;;;;;4.48;84.19;99068.69;436133;1248;107396;-39
2023/12/19 06:21:14;;;;;;;20.70;11.40;;;;;;;4.47;84.40;99068.04;436328;1251;109551;-42
2023/12/19 06:31:22;;;;;;;18.90;11.10;;;;;;;4.42;84.23;99072.36;436398;1248;101518;-39
2023/12/19 06:41:28;;;;;;;17.80;9.70;;;;;;;4.29;84.06;99080.39;436392;1251;111794;-40
2023/12/19 06:51:34;;;;;;;16.00;8.90;;;;;;;4.24;83.77;99077.73;436412;1247;108447;-40
2023/12/19 07:01:42;;;;;;;18.10;9.30;;;;;;;4.28;83.37;99075.05;436360;1251;98257;-39
2023/12/19 07:11:49;;;;;;;22.70;14.40;;;;;;;4.35;83.04;99065.70;436498;1251;110386;-39
2023/12/19 07:21:57;;;;;;;20.80;11.30;;;;;;;4.37;82.60;99069.15;436400;1251;107560;-39
2023/12/19 07:32:04;;;;;;;19.60;9.60;;;;;;;4.48;82.18;99062.34;436346;1248;97960;-39
2023/12/19 07:52:17;;;;;;;16.90;11.20;;;;;;;4.81;81.93;99049.02;436379;1251;99193;-39
2023/12/19 08:12:30;;;;;;;24.90;11.30;;;;;;;5.16;81.54;99032.64;436491;1248;108471;-40
2023/12/19 08:22:37;;;;;;;14.00;7.50;;;;;;;6.31;82.08;99026.37;436458;1251;99247;-40
2023/12/19 08:32:45;;;;;;;22.10;9.70;;;;;;;7.71;80.67;99010.25;436437;1248;107451;-40
2023/12/19 08:42:53;;;;;;;23.00;10.90;;;;;;;8.23;78.89;98994.80;436505;1247;99544;-40
2023/12/19 08:53:00;;;;;;;22.10;12.60;;;;;;;7.77;77.82;98979.77;436440;1251;110842;-40
2023/12/19 09:03:06;;;;;;;17.50;10.50;;;;;;;7.95;77.64;98986.80;436412;1251;108994;-39
2023/12/19 09:13:14;;;;;;;16.70;10.70;;;;;;;8.37;76.54;98975.36;436391;1247;99240;-40
2023/12/19 09:33:26;;;;;;;7.40;5.30;;;;;;;8.82;75.42;98969.80;436482;1251;98014;-40
2023/12/19 09:43:34;;;;;;;9.20;5.00;;;;;;;8.98;73.16;98941.51;436493;1251;114228;-39
2023/12/19 09:53:42;;;;;;;9.60;5.70;;;;;;;9.19;72.22;98918.86;436526;1251;107191;-40
2023/12/19 10:03:55;;;;;;;9.00;5.10;;;;;;;9.36;71.79;98902.62;436338;1248;99240;-42
2023/12/19 10:24:26;;;;;;;13.30;5.50;;;;;;;9.62;69.50;98859.39;436510;1251;99257;-41
2023/12/19 10:34:35;;;;;;;14.60;6.70;;;;;;;9.69;67.13;98816.42;436557;1251;111275;-39
2023/12/19 10:44:41;;;;;;;10.80;5.70;;;;;;;9.72;67.73;98786.46;436371;1251;107602;-40
2023/12/19 10:54:53;;;;;;;8.90;5.00;;;;;;;9.56;67.47;98771.68;436541;1247;98742;-41
2023/12/19 11:05:00;;;;;;;8.60;5.50;;;;;;;9.23;66.44;98767.98;436446;1251;107187;-40
2023/12/19 11:15:08;;;;;;;9.40;6.00;;;;;;;8.94;67.06;98763.27;436533;1247;98085;-40
2023/12/19 11:35:36;;;;;;;11.40;5.90;;;;;;;8.71;67.62;98746.48;436426;1247;107713;-39
2023/12/19 11:45:43;;;;;;;11.20;7.20;;;;;;;8.83;68.21;98728.41;436451;1251;97972;-40
2023/12/19 12:05:57;;;;;;;18.80;7.50;;;;;;;9.38;67.65;98687.95;436709;1247;112016;-38
2023/12/19 12:26:11;;;;;;;15.20;9.20;;;;;;;9.47;66.94;98631.08;436254;1247;99301;-40
2023/12/19 12:36:16;;;;;;;13.40;7.40;;;;;;;9.31;66.81;98608.77;436497;1251;110745;-41
2023/12/19 12:56:29;;;;;;;11.00;6.00;;;;;;;8.97;66.73;98575.09;436804;1251;99218;-41
2023/12/19 13:16:49;;;;;;;16.20;8.20;;;;;;;8.73;65.90;98567.98;436491;1247;108445;-40
2023/12/19 13:26:56;;;;;;;18.90;10.00;;;;;;;8.60;66.13;98552.95;436368;1251;99242;-39
2023/12/19 13:37:03;;;;;;;14.70;7.50;;;;;;;8.47;66.49;98532.19;436554;1248;112053;-40
2023/12/19 13:47:11;;;;;;;12.60;7.70;;;;;;;8.38;66.16;98504.52;436431;1251;108739;-41
2023/12/19 13:57:18;;;;;;;11.00;6.20;;;;;;;8.27;66.11;98489.63;436366;1248;97979;-39
2023/12/19 14:07:25;;;;;;;24.70;10.50;;;;;;;8.19;65.84;98492.23;436525;1247;112199;-39
2023/12/19 14:17:33;;;;;;;17.00;10.10;;;;;;;8.06;65.74;98473.15;436338;1247;108555;-40
2023/12/19 14:27:40;;;;;;;15.80;8.60;;;;;;;7.93;65.99;98453.42;436533;1251;99250;-40
2023/12/19 14:37:48;;;;;;;17.30;8.60;;;;;;;7.83;65.83;98433.27;438528;1247;111972;-39
2023/12/19 14:58:00;;;;;;;15.50;9.10;;;;;;;7.69;65.93;98412.37;436947;1247;99234;-40
2023/12/19 15:08:08;;;;;;;18.80;9.50;;;;;;;7.63;66.18;98396.28;436593;1247;111846;-40
2023/12/19 15:18:15;;;;;;;20.20;9.30;;;;;;;7.59;65.84;98405.67;436521;1251;108051;-39
2023/12/19 15:28:36;;;;;;;19.00;8.60;;;;;;;7.54;65.27;98397.55;436401;1251;99206;-40
2023/12/19 15:38:42;;;;;;;27.20;13.80;;;;;;;7.45;65.12;98403.06;436344;1251;110844;-40
2023/12/19 15:58:56;;;;;;;11.90;7.90;;;;;;;7.24;63.91;98394.28;436414;1253;99300;-41
2023/12/19 16:09:03;;;;;;;17.60;9.40;;;;;;;7.20;64.23;98374.45;436497;1247;106856;-40
2023/12/19 16:19:09;;;;;;;14.40;8.60;;;;;;;7.13;63.52;98363.18;436420;1251;99272;-40
2023/12/19 16:29:16;;;;;;;16.10;9.70;;;;;;;7.08;63.02;98361.02;436413;1247;112505;-40
2023/12/19 16:39:23;;;;;;;23.10;11.50;;;;;;;7.03;62.88;98340.96;436434;1247;107395;-40
2023/12/19 16:49:30;;;;;;;22.90;10.40;;;;;;;7.00;63.13;98332.98;436339;1247;118298;-40
2023/12/19 16:59:38;;;;;;;20.10;10.50;;;;;;;6.92;63.89;98331.95;436415;1252;109226;-41
2023/12/19 17:09:45;;;;;;;18.90;10.50;;;;;;;6.83;63.64;98310.05;436428;1247;98887;-39
2023/12/19 17:50:11;;;;;;;34.40;15.10;;;;;;;6.73;64.22;98314.77;436562;1251;110373;-40
2023/12/19 18:00:20;;;;;;;28.60;15.00;;;;;;;6.84;64.11;98300.13;436568;1247;109437;-41
2023/12/19 18:10:26;;;;;;;32.40;16.20;;;;;;;6.86;64.64;98303.20;436515;1253;99212;-40
2023/12/19 18:20:33;;;;;;;28.30;13.40;;;;;;;6.89;64.34;98291.02;436432;1252;112178;-41
2023/12/19 18:30:40;;;;;;;24.80;12.70;;;;;;;6.93;64.33;98284.46;436426;1247;107337;-41
2023/12/19 18:40:48;;;;;;;22.10;13.40;;;;;;;6.98;64.28;98281.52;436542;1251;99205;-40
2023/12/19 18:50:55;;;;;;;23.60;12.40;;;;;;;7.02;64.38;98282.48;436317;1247;110837;-40
2023/12/19 19:11:10;;;;;;;30.00;14.30;;;;;;;7.07;64.66;98277.17;436479;1252;99237;-39
2023/12/19 19:21:18;;;;;;;20.40;11.70;;;;;;;7.06;64.96;98260.88;436521;1247;113099;-40
2023/12/19 19:31:25;;;;;;;23.20;12.80;;;;;;;7.07;64.88;98251.66;436344;1247;109197;-40
2023/12/19 19:41:38;;;;;;;26.60;12.70;;;;;;;7.10;64.78;98234.25;436399;1252;99246;-39
2023/12/19 20:01:52;;;;;;;21.40;11.40;;;;;;;7.12;64.79;98219.60;436386;1251;108059;-40
2023/12/19 20:12:00;;;;;;;20.10;10.70;;;;;;;7.12;65.06;98209.29;436310;1247;99266;-41
2023/12/19 20:22:10;;;;;;;22.60;12.40;;;;;;;7.12;65.10;98200.88;436476;1247;111126;-40
2023/12/19 20:42:22;;;;;;;22.30;11.40;;;;;;;7.11;65.16;98180.66;436395;1251;98316;-39
2023/12/19 20:52:28;;;;;;;25.10;11.60;;;;;;;7.11;65.03;98163.36;436521;1247;113039;-39
2023/12/19 21:02:39;;;;;;;21.00;10.70;;;;;;;7.11;64.99;98154.36;436350;1251;109284;-42
2023/12/19 21:22:51;;;;;;;22.10;11.30;;;;;;;7.13;64.89;98134.13;436545;1248;112187;-40
2023/12/19 21:33:01;;;;;;;24.50;11.50;;;;;;;7.12;65.16;98121.84;436413;1253;107601;-40
2023/12/19 21:43:07;;;;;;;19.40;10.40;;;;;;;7.08;65.47;98107.58;436574;1252;99211;-41
2023/12/19 21:53:13;;;;;;;24.80;12.10;;;;;;;7.05;65.66;98100.25;436478;1253;99597;-40
2023/12/19 22:03:19;;;;;;;22.00;11.00;;;;;;;6.92;66.31;98099.04;436363;1252;107962;-40
2023/12/19 22:13:25;;;;;;;21.20;9.20;;;;;;;6.87;66.84;98094.36;436363;1254;97983;-40
2023/12/19 22:23:31;;;;;;;23.00;12.10;;;;;;;6.78;67.64;98087.05;436158;1252;107955;-40
2023/12/19 22:33:38;;;;;;;23.70;11.20;;;;;;;6.59;68.52;98078.67;436515;1252;98055;-40
2023/12/19 22:53:51;;;;;;;14.10;8.30;;;;;;;6.02;70.87;98066.86;436355;1252;107393;-40
2023/12/19 23:14:05;;;;;;;19.70;9.50;;;;;;;5.68;73.08;98042.34;436532;1254;108543;-40
2023/12/19 23:24:12;;;;;;;18.60;10.10;;;;;;;5.47;74.10;98039.45;436525;1263;99282;-39
2023/12/19 23:44:24;;;;;;;13.50;9.30;;;;;;;5.26;75.60;98034.95;436331;1251;107379;-40
2023/12/19 23:54:31;;;;;;;14.20;8.00;;;;;;;5.25;76.20;98028.05;436433;1254;99208;-39
